createdAt,value
2023-04-18T03:01:38.559Z,9.82
2023-04-18T03:04:16.811Z,9.82
2023-04-18T03:06:54.263Z,9.83
2023-04-18T03:09:23.927Z,9.82
2023-04-18T03:11:57.271Z,9.80
2023-04-18T03:14:28.504Z,9.77
2023-04-18T03:16:57.249Z,9.73
2023-04-18T03:19:29.736Z,9.73
2023-04-18T03:22:04.272Z,9.69
2023-04-18T03:24:34.021Z,9.66
2023-04-18T03:27:04.420Z,9.65
2023-04-18T03:29:33.953Z,9.64
2023-04-18T03:32:03.579Z,9.65
2023-04-18T03:34:33.260Z,9.66
2023-04-18T03:37:01.974Z,9.70
2023-04-18T03:39:32.272Z,9.73
2023-04-18T03:42:02.814Z,9.71
2023-04-18T03:44:32.129Z,9.69
2023-04-18T03:47:01.186Z,9.69
2023-04-18T03:49:31.240Z,9.68
2023-04-18T03:52:00.572Z,9.67
2023-04-18T03:54:29.245Z,9.68
2023-04-18T03:57:00.058Z,9.69
2023-04-18T03:59:29.838Z,9.73
2023-04-18T04:01:59.223Z,9.74
2023-04-18T04:04:28.816Z,9.76
2023-04-18T04:07:01.702Z,9.76
2023-04-18T04:09:31.642Z,9.76
2023-04-18T04:12:03.680Z,9.77
2023-04-18T04:14:33.330Z,9.77
2023-04-18T04:17:01.937Z,9.81
2023-04-18T04:19:31.342Z,9.80
2023-04-18T04:22:09.899Z,9.82
2023-04-18T04:24:39.159Z,9.86
2023-04-18T04:27:08.648Z,9.88
2023-04-18T04:29:39.393Z,9.89
2023-04-18T04:32:08.726Z,9.90
2023-04-18T04:34:41.943Z,9.92
2023-04-18T04:37:15.285Z,9.94
2023-04-18T04:39:54.223Z,9.95
2023-04-18T04:42:36.491Z,9.95
2023-04-18T04:45:13.114Z,9.96
2023-04-18T04:47:42.359Z,9.96
2023-04-18T04:50:15.938Z,9.99
2023-04-18T04:52:45.044Z,10.01
2023-04-18T04:55:13.543Z,10.05
2023-04-18T04:57:43.177Z,10.08
2023-04-18T05:00:25.040Z,10.10
2023-04-18T05:02:55.945Z,10.08
2023-04-18T05:05:25.982Z,10.09
2023-04-18T05:07:55.180Z,10.11
2023-04-18T05:10:24.594Z,10.13
2023-04-18T05:12:53.645Z,10.15
2023-04-18T05:15:22.660Z,10.19
2023-04-18T05:17:51.998Z,10.19
2023-04-18T05:20:21.066Z,10.21
2023-04-18T05:22:49.997Z,10.21
2023-04-18T05:25:19.639Z,10.22
2023-04-18T05:27:48.339Z,10.20
2023-04-18T05:30:17.064Z,10.21
2023-04-18T05:32:45.951Z,10.26
2023-04-18T05:35:15.031Z,10.29
2023-04-18T05:37:43.656Z,10.32
2023-04-18T05:40:12.726Z,10.35
2023-04-18T05:42:41.584Z,10.38
2023-04-18T05:45:10.522Z,10.42
2023-04-18T05:47:39.411Z,10.46
2023-04-18T05:50:08.952Z,10.48
2023-04-18T05:52:39.796Z,10.50
2023-04-18T05:55:09.034Z,10.54
2023-04-18T05:57:38.233Z,10.60
2023-04-18T06:00:07.801Z,10.67
2023-04-18T06:02:42.274Z,10.74
2023-04-18T06:05:11.675Z,10.79
2023-04-18T06:07:41.149Z,10.82
2023-04-18T06:10:14.213Z,10.90
2023-04-18T06:12:43.378Z,11.00
2023-04-18T06:15:12.916Z,11.08
2023-04-18T06:17:42.082Z,11.10
2023-04-18T06:20:11.228Z,11.13
2023-04-18T06:22:39.980Z,11.19
2023-04-18T06:25:12.235Z,11.29
2023-04-18T06:27:41.139Z,11.38
2023-04-18T06:30:10.506Z,11.46
2023-04-18T06:32:39.038Z,11.57
2023-04-18T06:35:07.988Z,11.69
2023-04-18T06:37:37.534Z,11.82
2023-04-18T06:40:06.913Z,11.95
2023-04-18T06:42:36.058Z,12.11
2023-04-18T06:45:08.153Z,12.26
2023-04-18T06:47:37.719Z,12.38
2023-04-18T06:50:08.103Z,12.47
2023-04-18T06:52:41.589Z,12.57
2023-04-18T06:55:11.643Z,12.67
2023-04-18T06:57:41.228Z,12.74
2023-04-18T07:00:10.760Z,12.77
2023-04-18T07:02:40.015Z,12.78
2023-04-18T07:05:09.546Z,12.84
2023-04-18T07:07:38.771Z,12.97
2023-04-18T07:10:10.212Z,13.08
2023-04-18T07:12:39.144Z,13.21
2023-04-18T07:15:09.024Z,13.24
2023-04-18T07:17:38.278Z,13.28
2023-04-18T07:20:07.920Z,13.36
2023-04-18T07:22:37.089Z,13.47
2023-04-18T07:25:06.327Z,13.55
2023-04-18T07:27:35.949Z,13.66
2023-04-18T07:30:05.152Z,13.75
2023-04-18T07:32:34.411Z,13.87
2023-04-18T07:35:04.613Z,13.99
2023-04-18T07:37:33.046Z,14.13
2023-04-18T07:40:02.119Z,14.25
2023-04-18T07:42:30.780Z,14.32
2023-04-18T07:44:59.836Z,14.39
2023-04-18T07:47:30.605Z,14.45
2023-04-18T07:50:00.222Z,14.55
2023-04-18T07:52:29.068Z,14.66
2023-04-18T07:54:58.055Z,14.78
2023-04-18T07:57:27.339Z,14.88
2023-04-18T07:59:57.116Z,15.00
2023-04-18T08:02:26.364Z,15.09
2023-04-18T08:04:56.473Z,15.18
2023-04-18T08:07:25.750Z,15.22
2023-04-18T08:09:54.662Z,15.25
2023-04-18T08:12:23.570Z,15.31
2023-04-18T08:14:52.510Z,15.42
2023-04-18T08:17:23.727Z,15.55
2023-04-18T08:19:52.817Z,15.69
2023-04-18T08:22:22.320Z,15.78
2023-04-18T08:25:03.702Z,15.84
2023-04-18T08:27:33.472Z,15.84
2023-04-18T08:30:04.803Z,15.87
2023-04-18T08:32:34.257Z,15.91
2023-04-18T08:35:04.740Z,15.98
2023-04-18T08:37:36.541Z,16.05
2023-04-18T08:40:07.576Z,16.08
2023-04-18T08:42:37.586Z,16.17
2023-04-18T08:45:07.363Z,16.21
2023-04-18T08:47:36.442Z,16.23
2023-04-18T08:50:05.545Z,16.27
2023-04-18T08:52:36.624Z,16.25
2023-04-18T08:55:05.631Z,16.24
2023-04-18T08:57:36.350Z,16.24
2023-04-18T09:00:10.735Z,16.26
2023-04-18T09:02:43.318Z,16.33
2023-04-18T09:05:16.801Z,16.37
2023-04-18T09:07:46.363Z,16.44
2023-04-18T09:10:25.872Z,16.54
2023-04-18T09:12:55.485Z,16.66
2023-04-18T09:15:28.224Z,16.78
2023-04-18T09:17:58.574Z,16.87
2023-04-18T09:20:31.380Z,16.94
2023-04-18T09:23:01.217Z,16.93
2023-04-18T09:25:35.172Z,16.91
2023-04-18T09:28:05.944Z,16.84
2023-04-18T09:30:34.981Z,16.82
2023-04-18T09:33:05.004Z,16.81
2023-04-18T09:35:35.298Z,16.79
2023-04-18T09:38:04.627Z,16.82
2023-04-18T09:40:33.828Z,16.88
2023-04-18T09:43:17.866Z,16.95
2023-04-18T09:45:47.715Z,16.98
2023-04-18T09:48:16.463Z,17.08
2023-04-18T09:50:46.841Z,17.13
2023-04-18T09:53:20.646Z,17.15
2023-04-18T09:55:50.961Z,17.18
2023-04-18T09:58:22.958Z,17.25
2023-04-18T10:00:52.522Z,17.35
2023-04-18T10:03:23.196Z,17.52
2023-04-18T10:05:52.389Z,17.66
2023-04-18T10:08:22.284Z,17.69
2023-04-18T10:10:51.739Z,17.62
2023-04-18T10:13:21.552Z,17.58
2023-04-18T10:15:53.110Z,17.65
2023-04-18T10:18:25.172Z,17.76
2023-04-18T10:21:01.652Z,17.84
2023-04-18T10:23:36.843Z,17.89
2023-04-18T10:26:06.878Z,17.94
2023-04-18T10:29:05.672Z,17.97
2023-04-18T10:31:39.489Z,17.86
2023-04-18T10:34:08.623Z,17.86
2023-04-18T10:36:37.830Z,17.93
2023-04-18T10:39:23.382Z,17.95
2023-04-18T10:41:52.322Z,18.01
2023-04-18T10:44:23.811Z,18.08
2023-04-18T10:46:52.734Z,18.08
2023-04-18T10:49:32.535Z,18.08
2023-04-18T10:52:02.464Z,18.04
2023-04-18T10:54:38.037Z,17.98
2023-04-18T10:57:09.162Z,17.92
2023-04-18T10:59:45.447Z,17.86
2023-04-18T11:02:20.442Z,17.80
2023-04-18T11:04:52.116Z,17.82
2023-04-18T11:07:32.500Z,17.84
2023-04-18T11:10:02.179Z,17.90
2023-04-18T11:12:32.903Z,17.98
2023-04-18T11:15:09.821Z,18.04
2023-04-18T11:17:40.741Z,18.20
2023-04-18T11:20:11.959Z,18.38
2023-04-18T11:22:47.097Z,18.49
2023-04-18T11:25:17.054Z,18.53
2023-04-18T11:27:46.785Z,18.60
2023-04-18T11:30:16.162Z,18.64
2023-04-18T11:32:44.714Z,18.68
2023-04-18T11:35:14.811Z,18.74
2023-04-18T11:37:46.247Z,18.76
2023-04-18T11:40:15.667Z,18.72
2023-04-18T11:42:44.579Z,18.72
2023-04-18T11:45:14.352Z,18.71
2023-04-18T11:47:43.919Z,18.72
2023-04-18T11:50:14.033Z,18.72
2023-04-18T11:52:42.964Z,18.70
2023-04-18T11:55:17.936Z,18.65
2023-04-18T11:57:57.318Z,18.64
2023-04-18T12:00:40.088Z,18.72
2023-04-18T12:03:19.416Z,18.71
2023-04-18T12:05:48.272Z,18.73
2023-04-18T12:08:21.146Z,18.80
2023-04-18T12:10:52.034Z,18.86
2023-04-18T12:13:40.781Z,18.91
2023-04-18T12:16:09.867Z,18.88
2023-04-18T12:18:39.788Z,18.82
2023-04-18T12:21:09.485Z,18.76
2023-04-18T12:23:40.583Z,18.62
2023-04-18T12:26:14.424Z,18.51
2023-04-18T12:28:45.655Z,18.48
2023-04-18T12:31:14.684Z,18.45
2023-04-18T12:33:43.476Z,18.40
2023-04-18T12:36:12.713Z,18.40
2023-04-18T12:38:42.009Z,18.41
2023-04-18T12:41:10.746Z,18.40
2023-04-18T12:43:39.775Z,18.39
2023-04-18T12:46:08.575Z,18.38
2023-04-18T12:48:37.576Z,18.34
2023-04-18T12:51:07.701Z,18.28
2023-04-18T12:53:36.634Z,18.30
2023-04-18T12:56:05.725Z,18.31
2023-04-18T12:58:34.935Z,18.35
2023-04-18T13:01:05.518Z,18.34
2023-04-18T13:03:35.324Z,18.18
2023-04-18T13:06:06.227Z,18.00
2023-04-18T13:08:35.614Z,17.87
2023-04-18T13:11:04.654Z,17.86
2023-04-18T13:13:34.452Z,17.81
2023-04-18T13:16:07.335Z,17.72
2023-04-18T13:18:37.260Z,17.72
2023-04-18T13:21:06.156Z,17.69
2023-04-18T13:23:35.227Z,17.64
2023-04-18T13:26:03.558Z,17.62
2023-04-18T13:28:32.622Z,17.57
2023-04-18T13:31:01.859Z,17.55
2023-04-18T13:33:30.675Z,17.54
2023-04-18T13:35:59.568Z,17.57
2023-04-18T13:38:28.490Z,17.64
2023-04-18T13:41:11.437Z,17.67
2023-04-18T13:44:10.002Z,17.67
2023-04-18T13:46:39.016Z,17.68
2023-04-18T13:49:07.656Z,17.74
2023-04-18T13:51:36.734Z,17.76
2023-04-18T13:54:05.819Z,17.74
2023-04-18T13:56:34.789Z,17.75
2023-04-18T13:59:03.444Z,17.74
2023-04-18T14:01:32.390Z,17.72
2023-04-18T14:04:01.469Z,17.58
2023-04-18T14:06:30.754Z,17.42
2023-04-18T14:08:59.862Z,17.28
2023-04-18T14:11:28.576Z,17.21
2023-04-18T14:13:57.082Z,17.08
2023-04-18T14:19:11.971Z,16.85
2023-04-18T14:21:40.838Z,16.73
2023-04-18T14:24:09.595Z,16.66
2023-04-18T14:26:38.525Z,16.60
2023-04-18T14:29:06.921Z,16.55
2023-04-18T14:31:36.055Z,16.56
2023-04-18T14:34:04.453Z,16.55
2023-04-18T14:36:32.891Z,16.55
2023-04-18T14:39:02.797Z,16.58
2023-04-18T14:41:31.216Z,16.62
2023-04-18T14:44:03.238Z,16.61
2023-04-18T14:46:32.052Z,16.57
2023-04-18T14:49:00.209Z,16.59
2023-04-18T14:51:28.454Z,16.66
2023-04-18T14:53:57.222Z,16.78
2023-04-18T14:56:25.662Z,16.88
2023-04-18T14:58:54.810Z,16.95
2023-04-18T15:01:23.734Z,16.96
2023-04-18T15:03:53.627Z,16.97
2023-04-18T15:06:23.371Z,17.00
2023-04-18T15:08:54.004Z,16.99
2023-04-18T15:11:23.469Z,16.93
2023-04-18T15:13:51.767Z,16.87
2023-04-18T15:16:21.043Z,16.87
2023-04-18T15:18:49.637Z,16.83
2023-04-18T15:21:18.792Z,16.68
2023-04-18T15:23:47.528Z,16.47
2023-04-18T15:26:16.138Z,16.30
2023-04-18T15:28:45.778Z,16.20
2023-04-18T15:31:16.295Z,16.12
2023-04-18T15:33:44.948Z,16.03
2023-04-18T15:36:13.893Z,15.86
2023-04-18T15:38:43.903Z,15.70
2023-04-18T15:41:13.721Z,15.57
2023-04-18T15:43:42.274Z,15.46
2023-04-18T15:46:10.908Z,15.39
2023-04-18T15:48:40.137Z,15.36
2023-04-18T15:51:08.545Z,15.24
2023-04-18T15:53:37.116Z,15.17
2023-04-18T15:56:06.663Z,15.11
2023-04-18T15:58:35.017Z,15.06
2023-04-18T16:01:04.669Z,15.04
2023-04-18T16:03:34.257Z,15.02
2023-04-18T16:06:02.858Z,14.92
2023-04-18T16:08:33.147Z,14.84
2023-04-18T16:11:02.383Z,14.71
2023-04-18T16:13:31.554Z,14.56
2023-04-18T16:16:00.194Z,14.43
2023-04-18T16:18:28.346Z,14.33
2023-04-18T16:20:57.000Z,14.26
2023-04-18T16:23:25.819Z,14.19
2023-04-18T16:25:55.395Z,14.13
2023-04-18T16:28:23.625Z,14.10
2023-04-18T16:30:54.169Z,14.08
2023-04-18T16:33:26.422Z,14.04
2023-04-18T16:35:58.152Z,13.95
2023-04-18T16:38:28.368Z,13.88
2023-04-18T16:40:58.218Z,13.75
2023-04-18T16:43:37.256Z,13.61
2023-04-18T16:46:06.411Z,13.48
2023-04-18T16:48:39.227Z,13.36
2023-04-18T16:51:07.577Z,13.28
2023-04-18T16:53:36.819Z,13.22
2023-04-18T16:56:05.669Z,13.16
2023-04-18T16:58:34.414Z,13.10
2023-04-18T17:01:03.637Z,13.06
2023-04-18T17:03:32.152Z,12.98
2023-04-18T17:06:02.072Z,12.91
2023-04-18T17:08:32.228Z,12.88
2023-04-18T17:11:02.514Z,12.82
2023-04-18T17:13:31.777Z,12.76
2023-04-18T17:16:00.398Z,12.70
2023-04-18T17:18:29.534Z,12.64
2023-04-18T17:21:04.275Z,12.63
2023-04-18T17:23:41.618Z,12.63
2023-04-18T17:26:10.076Z,12.60
2023-04-18T17:28:39.303Z,12.59
2023-04-18T17:31:07.861Z,12.57
2023-04-18T17:33:37.372Z,12.57
2023-04-18T17:36:06.494Z,12.52
2023-04-18T17:38:35.195Z,12.48
2023-04-18T17:41:04.919Z,12.47
2023-04-18T17:43:33.824Z,12.46
2023-04-18T17:46:04.098Z,12.42
2023-04-18T17:48:32.550Z,12.39
2023-04-18T17:51:02.351Z,12.33
2023-04-18T17:53:32.345Z,12.31
2023-04-18T17:56:01.633Z,12.30
2023-04-18T17:58:30.694Z,12.30
2023-04-18T18:00:59.596Z,12.25
2023-04-18T18:03:28.628Z,12.19
2023-04-18T18:05:57.665Z,12.16
2023-04-18T18:08:26.972Z,12.13
2023-04-18T18:10:55.760Z,12.12
2023-04-18T18:13:24.205Z,12.09
2023-04-18T18:15:52.782Z,12.06
2023-04-18T18:18:31.842Z,12.04
2023-04-18T18:21:01.029Z,12.00
2023-04-18T18:23:29.255Z,11.96
2023-04-18T18:25:57.502Z,11.95
2023-04-18T18:28:26.384Z,11.94
2023-04-18T18:30:55.137Z,11.94
2023-04-18T18:33:23.396Z,11.90
2023-04-18T18:35:52.246Z,11.86
2023-04-18T18:38:21.137Z,11.84
2023-04-18T18:40:50.055Z,11.81
2023-04-18T18:43:19.084Z,11.77
2023-04-18T18:45:51.535Z,11.76
2023-04-18T18:48:21.669Z,11.71
2023-04-18T18:50:51.926Z,11.65
2023-04-18T18:53:20.745Z,11.60
2023-04-18T18:55:49.721Z,11.58
2023-04-18T18:58:18.290Z,11.54
2023-04-18T19:00:47.492Z,11.50
2023-04-18T19:03:19.544Z,11.45
2023-04-18T19:05:48.124Z,11.41
2023-04-18T19:08:16.383Z,11.35
2023-04-18T19:10:44.532Z,11.31
2023-04-18T19:13:13.246Z,11.27
2023-04-18T19:15:41.712Z,11.20
2023-04-18T19:18:10.021Z,11.14
2023-04-18T19:20:40.646Z,11.09
2023-04-18T19:23:08.944Z,11.03
2023-04-18T19:25:37.160Z,10.99
2023-04-18T19:28:06.090Z,10.97
2023-04-18T19:30:34.683Z,10.93
2023-04-18T19:33:02.996Z,10.89
2023-04-18T19:35:34.811Z,10.87
2023-04-18T19:38:05.752Z,10.80
2023-04-18T19:40:33.860Z,10.77
2023-04-18T19:43:03.026Z,10.74
2023-04-18T19:45:32.079Z,10.72
2023-04-18T19:48:00.804Z,10.72
2023-04-18T19:50:29.709Z,10.70
2023-04-18T19:52:58.785Z,10.65
2023-04-18T19:55:27.314Z,10.59
2023-04-18T19:57:57.315Z,10.54
2023-04-18T20:00:26.308Z,10.49
2023-04-18T20:02:55.531Z,10.44
2023-04-18T20:05:25.121Z,10.39
2023-04-18T20:07:53.443Z,10.37
2023-04-18T20:10:22.696Z,10.32
2023-04-18T20:12:54.821Z,10.28
2023-04-18T20:15:24.285Z,10.23
2023-04-18T20:17:53.646Z,10.17
2023-04-18T20:20:22.930Z,10.11
2023-04-18T20:22:52.144Z,10.05
2023-04-18T20:25:21.015Z,9.97
2023-04-18T20:27:50.565Z,9.90
2023-04-18T20:30:19.607Z,9.84
2023-04-18T20:32:48.911Z,9.79
2023-04-18T20:35:20.157Z,9.75
2023-04-18T20:37:50.842Z,9.70
2023-04-18T20:40:19.512Z,9.66
2023-04-18T20:42:47.693Z,9.63
2023-04-18T20:45:16.554Z,9.59
2023-04-18T20:47:45.873Z,9.56
2023-04-18T20:50:16.382Z,9.51
2023-04-18T20:52:45.586Z,9.46
2023-04-18T20:55:17.436Z,9.38
2023-04-18T20:57:45.876Z,9.25
2023-04-18T21:00:15.039Z,9.11
2023-04-18T21:02:45.121Z,8.94
2023-04-18T21:05:14.368Z,8.80
2023-04-18T21:07:45.243Z,8.68
2023-04-18T21:10:14.653Z,8.57
2023-04-18T21:12:43.057Z,8.48
2023-04-18T21:15:12.364Z,8.40
2023-04-18T21:17:40.986Z,8.31
2023-04-18T21:20:10.048Z,8.22
2023-04-18T21:22:40.001Z,8.11
2023-04-18T21:25:08.876Z,8.03
2023-04-18T21:27:37.560Z,7.97
2023-04-18T21:30:06.465Z,7.90
2023-04-18T21:32:35.386Z,7.82
2023-04-18T21:35:09.789Z,7.70
2023-04-18T21:37:38.357Z,7.61
2023-04-18T21:40:07.517Z,7.56
2023-04-18T21:42:36.327Z,7.50
2023-04-18T21:45:06.380Z,7.45
2023-04-18T21:47:36.651Z,7.40
2023-04-18T21:50:07.849Z,7.37
2023-04-18T21:52:37.601Z,7.33
2023-04-18T21:55:06.932Z,7.30
2023-04-18T21:57:35.924Z,7.27
2023-04-18T22:00:09.284Z,7.21
2023-04-18T22:02:39.398Z,7.15
2023-04-18T22:05:09.799Z,7.14
2023-04-18T22:07:54.461Z,7.12
2023-04-18T22:10:32.406Z,7.10
2023-04-18T22:13:05.935Z,7.05
2023-04-18T22:15:34.235Z,6.99
2023-04-18T22:18:03.493Z,6.97
2023-04-18T22:20:34.052Z,6.97
2023-04-18T22:23:04.725Z,6.93
2023-04-18T22:25:33.908Z,6.89
2023-04-18T22:28:03.329Z,6.85
2023-04-18T22:30:32.738Z,6.80
2023-04-18T22:33:01.539Z,6.74
2023-04-18T22:35:30.375Z,6.71
2023-04-18T22:37:58.688Z,6.67
2023-04-18T22:40:27.351Z,6.61
2023-04-18T22:42:56.303Z,6.54
2023-04-18T22:45:24.425Z,6.49
2023-04-18T22:47:53.160Z,6.44
2023-04-18T22:50:22.361Z,6.41
2023-04-18T22:52:51.758Z,6.37
2023-04-18T22:55:21.303Z,6.35
2023-04-18T22:57:49.837Z,6.37
2023-04-18T23:00:18.870Z,6.37
2023-04-18T23:02:47.912Z,6.35
2023-04-18T23:05:17.479Z,6.32
2023-04-18T23:07:46.511Z,6.28
2023-04-18T23:10:15.982Z,6.20
2023-04-18T23:12:44.314Z,6.18
2023-04-18T23:15:12.877Z,6.18
2023-04-18T23:17:42.184Z,6.16
2023-04-18T23:20:11.884Z,6.17
2023-04-18T23:22:40.980Z,6.18
2023-04-18T23:25:09.787Z,6.18
2023-04-18T23:27:38.752Z,6.15
2023-04-18T23:30:08.494Z,6.14
2023-04-18T23:32:37.885Z,6.10
2023-04-18T23:35:07.180Z,6.05
2023-04-18T23:37:36.254Z,6.00
2023-04-18T23:40:07.423Z,5.91
2023-04-18T23:42:36.800Z,5.85
2023-04-18T23:45:06.537Z,5.81
2023-04-18T23:47:34.993Z,5.79
2023-04-18T23:50:04.015Z,5.74
2023-04-18T23:52:33.078Z,5.68
2023-04-18T23:55:02.503Z,5.62
2023-04-18T23:57:31.705Z,5.58
